createdAt,value
2018-02-15T00:01:06.044Z,96450.52
2018-02-15T00:03:33.617Z,96438.97
2018-02-15T00:06:01.194Z,96442.09
2018-02-15T00:08:28.826Z,96443.00
2018-02-15T00:10:56.420Z,96443.58
2018-02-15T00:13:24.130Z,96451.96
2018-02-15T00:15:51.853Z,96446.89
2018-02-15T00:18:19.634Z,96452.23
2018-02-15T00:20:47.244Z,96448.03
2018-02-15T00:23:15.669Z,96445.04
2018-02-15T00:25:43.260Z,96441.66
2018-02-15T00:28:10.957Z,96435.66
2018-02-15T00:30:38.557Z,96434.27
2018-02-15T00:33:07.091Z,96437.82
2018-02-15T00:35:35.378Z,96445.99
2018-02-15T00:38:02.995Z,96446.32
2018-02-15T00:40:30.634Z,96451.80
2018-02-15T00:42:58.236Z,96459.91
2018-02-15T00:45:25.957Z,96453.08
2018-02-15T00:47:53.523Z,96458.73
2018-02-15T00:50:22.133Z,96456.84
2018-02-15T00:52:49.728Z,96451.64
2018-02-15T00:55:18.153Z,96457.20
2018-02-15T00:57:45.781Z,96462.81
2018-02-15T01:00:13.919Z,96459.92
2018-02-15T01:02:41.524Z,96455.33
2018-02-15T01:05:10.104Z,96460.78
2018-02-15T01:07:37.800Z,96462.16
2018-02-15T01:10:05.405Z,96468.52
2018-02-15T01:12:32.965Z,96471.55
2018-02-15T01:15:00.536Z,96480.81
2018-02-15T01:17:28.280Z,96473.48
2018-02-15T01:19:55.876Z,96460.17
2018-02-15T01:22:23.455Z,96458.36
2018-02-15T01:24:51.141Z,96461.70
2018-02-15T01:27:18.761Z,96458.78
2018-02-15T01:29:46.327Z,96457.03
2018-02-15T01:32:13.916Z,96450.94
2018-02-15T01:34:41.503Z,96448.92
2018-02-15T01:37:09.921Z,96440.27
2018-02-15T01:39:37.521Z,96444.09
2018-02-15T01:42:05.101Z,96444.03
2018-02-15T01:44:32.750Z,96453.48
2018-02-15T01:47:00.327Z,96466.48
2018-02-15T01:49:28.151Z,96476.91
2018-02-15T01:51:55.827Z,96468.94
2018-02-15T01:54:23.417Z,96471.37
2018-02-15T01:56:51.021Z,96466.30
2018-02-15T01:59:18.608Z,96472.06
2018-02-15T02:01:46.209Z,96472.83
2018-02-15T02:04:13.812Z,96459.93
2018-02-15T02:06:41.386Z,96448.28
2018-02-15T02:09:09.728Z,96458.39
2018-02-15T02:11:37.776Z,96454.14
2018-02-15T02:14:06.212Z,96458.36
2018-02-15T02:16:33.790Z,96459.95
2018-02-15T02:19:01.783Z,96462.44
2018-02-15T02:21:29.520Z,96466.13
2018-02-15T02:23:57.079Z,96461.94
2018-02-15T02:26:25.803Z,96464.02
2018-02-15T02:28:53.377Z,96460.77
2018-02-15T02:31:20.985Z,96453.70
2018-02-15T02:33:48.570Z,96459.56
2018-02-15T02:36:16.151Z,96456.30
2018-02-15T02:38:44.072Z,96455.56
2018-02-15T02:41:11.988Z,96458.95
2018-02-15T02:43:39.558Z,96465.25
2018-02-15T02:46:07.293Z,96465.36
2018-02-15T02:48:34.931Z,96465.81
2018-02-15T02:51:02.540Z,96466.77
2018-02-15T02:53:31.405Z,96470.48
2018-02-15T02:56:00.494Z,96472.19
2018-02-15T02:58:28.049Z,96477.63
2018-02-15T03:00:56.861Z,96480.08
2018-02-15T03:03:24.842Z,96476.79
2018-02-15T03:05:54.168Z,96477.20
2018-02-15T03:08:21.799Z,96471.08
2018-02-15T03:10:49.429Z,96467.50
2018-02-15T03:13:17.628Z,96465.48
2018-02-15T03:15:45.214Z,96475.14
2018-02-15T03:18:14.572Z,96477.67
2018-02-15T03:20:43.903Z,96476.06
2018-02-15T03:23:12.002Z,96471.45
2018-02-15T03:25:39.786Z,96478.07
2018-02-15T03:28:07.421Z,96475.02
2018-02-15T03:30:34.973Z,96476.09
2018-02-15T03:33:02.600Z,96477.60
2018-02-15T03:35:30.154Z,96487.43
2018-02-15T03:38:00.095Z,96492.63
2018-02-15T03:40:27.688Z,96489.55
2018-02-15T03:42:56.096Z,96491.04
2018-02-15T03:45:23.709Z,96497.15
2018-02-15T03:47:51.294Z,96482.02
2018-02-15T03:50:18.875Z,96486.50
2018-02-15T03:52:47.880Z,96485.61
2018-02-15T03:55:18.797Z,96490.50
2018-02-15T03:57:46.416Z,96493.38
2018-02-15T04:00:14.228Z,96490.81
2018-02-15T04:02:42.025Z,96499.58
2018-02-15T04:05:09.754Z,96501.35
2018-02-15T04:07:37.960Z,96501.12
2018-02-15T04:10:05.545Z,96510.56
2018-02-15T04:12:33.134Z,96505.22
2018-02-15T04:15:00.708Z,96506.44
2018-02-15T04:17:29.494Z,96509.72
2018-02-15T04:19:57.101Z,96505.97
2018-02-15T04:22:24.720Z,96507.20
2018-02-15T04:24:52.323Z,96503.42
2018-02-15T04:27:19.912Z,96500.12
2018-02-15T04:29:47.491Z,96496.53
2018-02-15T04:32:15.478Z,96498.34
2018-02-15T04:34:43.118Z,96492.30
2018-02-15T04:37:12.750Z,96493.28
2018-02-15T04:39:40.593Z,96487.14
2018-02-15T04:42:08.274Z,96492.13
2018-02-15T04:44:35.888Z,96497.84
2018-02-15T04:47:03.456Z,96489.09
2018-02-15T04:49:32.831Z,96487.53
2018-02-15T04:52:02.265Z,96485.47
2018-02-15T04:54:29.868Z,96481.88
2018-02-15T04:56:57.552Z,96482.80
2018-02-15T04:59:25.124Z,96479.13
2018-02-15T05:01:52.712Z,96481.20
2018-02-15T05:04:21.152Z,96488.41
2018-02-15T05:06:48.926Z,96490.61
2018-02-15T05:09:17.154Z,96499.02
2018-02-15T05:11:44.876Z,96495.73
2018-02-15T05:14:12.469Z,96499.04
2018-02-15T05:16:40.083Z,96496.91
2018-02-15T05:19:08.636Z,96496.91
2018-02-15T05:21:37.192Z,96499.85
2018-02-15T05:24:04.797Z,96500.76
2018-02-15T05:26:32.371Z,96504.19
2018-02-15T05:28:59.924Z,96504.67
2018-02-15T05:31:27.545Z,96506.77
2018-02-15T05:33:55.115Z,96507.58
2018-02-15T05:36:24.420Z,96510.08
2018-02-15T05:38:52.025Z,96516.33
2018-02-15T05:41:19.881Z,96512.16
2018-02-15T05:43:47.495Z,96507.56
2018-02-15T05:46:15.429Z,96516.31
2018-02-15T05:48:43.000Z,96511.76
2018-02-15T05:51:11.156Z,96513.51
2018-02-15T05:53:38.893Z,96517.67
2018-02-15T05:56:08.428Z,96520.17
2018-02-15T05:58:36.045Z,96514.77
2018-02-15T06:01:03.616Z,96513.94
2018-02-15T06:03:33.592Z,96514.77
2018-02-15T06:06:01.235Z,96508.17
2018-02-15T06:08:28.826Z,96510.70
2018-02-15T06:10:56.399Z,96515.27
2018-02-15T06:13:24.238Z,96520.20
2018-02-15T06:15:52.029Z,96523.14
2018-02-15T06:18:19.689Z,96519.10
2018-02-15T06:20:47.326Z,96524.52
2018-02-15T06:23:14.923Z,96535.33
2018-02-15T06:25:42.500Z,96537.45
2018-02-15T06:28:10.258Z,96543.27
2018-02-15T06:30:40.724Z,96546.56
2018-02-15T06:33:09.085Z,96552.73
2018-02-15T06:35:37.061Z,96558.92
2018-02-15T06:38:04.876Z,96548.03
2018-02-15T06:40:32.477Z,96551.71
2018-02-15T06:43:00.052Z,96548.73
2018-02-15T06:45:27.639Z,96547.05
2018-02-15T06:47:55.215Z,96552.39
2018-02-15T06:50:22.840Z,96551.54
2018-02-15T06:52:50.430Z,96551.89
2018-02-15T06:55:18.324Z,96551.05
2018-02-15T06:57:45.884Z,96547.78
2018-02-15T07:00:13.481Z,96543.73
2018-02-15T07:02:41.072Z,96545.78
2018-02-15T07:05:09.063Z,96550.27
2018-02-15T07:07:39.362Z,96550.23
2018-02-15T07:10:08.088Z,96545.59
2018-02-15T07:12:37.306Z,96542.63
2018-02-15T07:15:05.201Z,96540.08
2018-02-15T07:17:33.291Z,96533.70
2018-02-15T07:20:02.977Z,96532.05
2018-02-15T07:22:33.690Z,96530.84
2018-02-15T07:25:01.434Z,96525.33
2018-02-15T07:27:29.936Z,96526.84
2018-02-15T07:29:58.085Z,96530.09
2018-02-15T07:32:25.712Z,96519.99
2018-02-15T07:34:53.305Z,96523.22
2018-02-15T07:37:23.132Z,96525.94
2018-02-15T07:39:51.618Z,96523.78
2018-02-15T07:42:22.024Z,96523.64
2018-02-15T07:44:49.645Z,96523.55
2018-02-15T07:47:17.608Z,96515.47
2018-02-15T07:49:48.501Z,96519.04
2018-02-15T07:52:16.172Z,96518.42
2018-02-15T07:54:45.905Z,96519.47
2018-02-15T07:57:13.875Z,96520.36
2018-02-15T07:59:46.922Z,96519.86
2018-02-15T08:02:14.520Z,96525.11
2018-02-15T08:04:42.120Z,96528.57
2018-02-15T08:07:09.957Z,96533.50
2018-02-15T08:09:38.105Z,96537.07
2018-02-15T08:12:05.689Z,96547.26
2018-02-15T08:14:33.271Z,96551.46
2018-02-15T08:17:00.848Z,96554.27
2018-02-15T08:19:28.668Z,96557.16
2018-02-15T08:21:56.236Z,96559.53
2018-02-15T08:24:24.679Z,96558.05
2018-02-15T08:26:52.306Z,96557.34
2018-02-15T08:29:20.101Z,96563.99
2018-02-15T08:31:47.681Z,96560.67
2018-02-15T08:34:15.330Z,96566.09
2018-02-15T08:36:42.921Z,96556.16
2018-02-15T08:39:10.980Z,96560.83
2018-02-15T08:41:38.576Z,96556.66
2018-02-15T08:44:06.191Z,96550.92
2018-02-15T08:46:33.783Z,96555.53
2018-02-15T08:49:01.379Z,96554.65
2018-02-15T08:51:31.905Z,96548.78
2018-02-15T08:53:59.505Z,96546.51
2018-02-15T08:56:48.210Z,96547.69
2018-02-15T08:59:17.102Z,96548.35
2018-02-15T09:01:44.685Z,96544.72
2018-02-15T09:04:12.700Z,96542.40
2018-02-15T09:06:40.312Z,96541.41
2018-02-15T09:09:08.010Z,96546.38
2018-02-15T09:11:36.990Z,96539.30
2018-02-15T09:14:04.588Z,96540.49
2018-02-15T09:16:32.149Z,96544.89
2018-02-15T09:18:59.739Z,96542.27
2018-02-15T09:21:27.311Z,96535.55
2018-02-15T09:23:54.866Z,96529.86
2018-02-15T09:26:22.567Z,96532.19
2018-02-15T09:28:50.163Z,96538.86
2018-02-15T09:31:18.164Z,96535.95
2018-02-15T09:33:45.733Z,96530.50
2018-02-15T09:36:13.341Z,96524.30
2018-02-15T09:38:40.882Z,96519.91
2018-02-15T09:41:08.634Z,96532.72
2018-02-15T09:43:37.786Z,96533.79
2018-02-15T09:46:05.421Z,96528.00
2018-02-15T09:48:32.989Z,96521.23
2018-02-15T09:51:00.544Z,96525.25
2018-02-15T09:53:29.469Z,96514.98
2018-02-15T09:55:57.062Z,96518.05
2018-02-15T09:58:24.956Z,96517.22
2018-02-15T10:00:52.513Z,96524.52
2018-02-15T10:03:20.594Z,96530.55
2018-02-15T10:05:48.181Z,96526.78
2018-02-15T10:08:15.985Z,96527.84
2018-02-15T10:10:43.573Z,96521.16
2018-02-15T10:13:12.206Z,96524.90
2018-02-15T10:15:39.824Z,96528.92
2018-02-15T10:18:07.458Z,96519.84
2018-02-15T10:20:35.019Z,96512.59
2018-02-15T10:23:02.615Z,96513.39
2018-02-15T10:25:30.273Z,96505.80
2018-02-15T10:27:57.917Z,96499.95
2018-02-15T10:30:25.524Z,96495.64
2018-02-15T10:32:53.082Z,96500.86
2018-02-15T10:35:21.184Z,96498.66
2018-02-15T10:37:48.812Z,96494.18
2018-02-15T10:40:16.379Z,96488.30
2018-02-15T10:42:43.942Z,96484.20
2018-02-15T10:45:12.040Z,96473.53
2018-02-15T10:47:39.620Z,96470.28
2018-02-15T10:50:07.218Z,96469.89
2018-02-15T10:52:37.892Z,96466.78
2018-02-15T10:55:09.555Z,96470.34
2018-02-15T10:57:37.217Z,96463.34
2018-02-15T11:00:05.117Z,96457.37
2018-02-15T11:02:35.175Z,96458.83
2018-02-15T11:05:09.133Z,96457.47
2018-02-15T11:07:44.139Z,96453.63
2018-02-15T11:10:11.873Z,96449.03
2018-02-15T11:12:41.482Z,96450.56
2018-02-15T11:15:09.350Z,96452.34
2018-02-15T11:17:38.778Z,96450.29
2018-02-15T11:20:08.145Z,96451.08
2018-02-15T11:22:35.749Z,96444.30
2018-02-15T11:25:06.755Z,96441.27
2018-02-15T11:27:35.256Z,96437.73
2018-02-15T11:30:02.864Z,96429.40
2018-02-15T11:32:30.466Z,96422.25
2018-02-15T11:34:58.076Z,96418.61
2018-02-15T11:37:26.959Z,96419.16
2018-02-15T11:39:54.864Z,96422.06
2018-02-15T11:42:22.458Z,96417.86
2018-02-15T11:44:51.291Z,96418.80
2018-02-15T11:47:22.281Z,96414.38
2018-02-15T11:49:52.615Z,96414.17
2018-02-15T11:52:20.252Z,96417.27
2018-02-15T11:54:47.842Z,96408.75
2018-02-15T11:57:15.941Z,96405.19
2018-02-15T11:59:44.974Z,96403.09
2018-02-15T12:02:12.770Z,96398.91
2018-02-15T12:04:40.364Z,96388.16
2018-02-15T12:07:08.331Z,96384.52
2018-02-15T12:09:35.961Z,96387.02
2018-02-15T12:12:03.507Z,96391.56
2018-02-15T12:14:31.099Z,96386.23
2018-02-15T12:16:58.677Z,96384.02
2018-02-15T12:19:26.237Z,96386.31
2018-02-15T12:21:53.809Z,96375.88
2018-02-15T12:24:21.462Z,96380.95
2018-02-15T12:26:49.172Z,96379.17
2018-02-15T12:29:17.577Z,96378.02
2018-02-15T12:31:45.363Z,96378.42
2018-02-15T12:34:12.916Z,96370.48
2018-02-15T12:36:40.483Z,96383.23
2018-02-15T12:39:08.271Z,96382.03
2018-02-15T12:41:35.842Z,96380.10
2018-02-15T12:44:03.478Z,96375.20
2018-02-15T12:46:31.056Z,96363.88
2018-02-15T12:48:58.699Z,96356.28
2018-02-15T12:51:27.297Z,96356.13
2018-02-15T12:53:54.870Z,96349.22
2018-02-15T12:59:14.767Z,96356.30
2018-02-15T13:01:42.736Z,96352.01
2018-02-15T13:04:11.023Z,96364.34
2018-02-15T13:06:38.640Z,96360.57
2018-02-15T13:09:06.647Z,96346.73
2018-02-15T13:11:34.300Z,96358.04
2018-02-15T13:14:01.887Z,96359.70
2018-02-15T13:16:42.212Z,96357.47
2018-02-15T13:22:24.240Z,96354.20
2018-02-15T13:24:51.779Z,96353.00
2018-02-15T13:27:19.678Z,96354.58
2018-02-15T13:29:47.606Z,96361.01
2018-02-15T13:32:15.242Z,96362.96
2018-02-15T13:34:42.752Z,96367.39
2018-02-15T13:37:10.764Z,96366.30
2018-02-15T13:39:38.345Z,96374.13
2018-02-15T13:42:05.944Z,96364.93
2018-02-15T13:44:33.518Z,96367.10
2018-02-15T13:47:01.099Z,96364.89
2018-02-15T13:49:28.669Z,96362.44
2018-02-15T13:51:56.246Z,96364.50
2018-02-15T13:54:24.326Z,96350.53
2018-02-15T13:56:51.905Z,96353.81
2018-02-15T13:59:19.456Z,96356.35
2018-02-15T14:01:47.056Z,96364.81
2018-02-15T14:04:14.615Z,96365.75
2018-02-15T14:06:42.225Z,96364.68
2018-02-15T14:09:10.600Z,96369.22
2018-02-15T14:11:38.329Z,96363.39
2018-02-15T14:14:05.912Z,96361.20
2018-02-15T14:16:33.501Z,96361.95
2018-02-15T14:19:01.093Z,96361.34
2018-02-15T14:21:29.262Z,96364.08
2018-02-15T14:23:56.838Z,96367.12
2018-02-15T14:26:25.348Z,96363.02
2018-02-15T14:28:53.001Z,96364.22
2018-02-15T14:31:20.597Z,96364.27
2018-02-15T14:33:48.316Z,96374.20
2018-02-15T14:36:16.214Z,96364.59
2018-02-15T14:38:43.910Z,96359.73
2018-02-15T14:41:11.560Z,96354.95
2018-02-15T14:43:39.504Z,96343.36
2018-02-15T14:46:07.103Z,96350.81
2018-02-15T14:48:34.684Z,96358.46
2018-02-15T14:51:02.267Z,96351.20
2018-02-15T14:53:30.730Z,96347.97
2018-02-15T14:55:58.477Z,96358.00
2018-02-15T14:58:26.112Z,96354.62
2018-02-15T15:00:53.664Z,96350.02
2018-02-15T15:03:21.257Z,96350.55
2018-02-15T15:05:48.981Z,96346.02
2018-02-15T15:08:16.549Z,96348.78
2018-02-15T15:10:44.132Z,96346.58
2018-02-15T15:13:11.748Z,96349.13
2018-02-15T15:15:39.305Z,96351.94
2018-02-15T15:18:09.128Z,96353.20
2018-02-15T15:20:36.729Z,96355.17
2018-02-15T15:23:05.039Z,96357.50
2018-02-15T15:25:32.614Z,96356.98
2018-02-15T15:28:07.860Z,96361.08
2018-02-15T15:30:35.685Z,96359.14
2018-02-15T15:33:03.298Z,96361.67
2018-02-15T15:35:30.900Z,96361.55
2018-02-15T15:37:59.381Z,96366.03
2018-02-15T15:40:27.015Z,96361.72
2018-02-15T15:42:54.791Z,96360.02
2018-02-15T15:45:22.651Z,96366.88
2018-02-15T15:47:50.240Z,96362.56
2018-02-15T15:50:17.831Z,96360.64
2018-02-15T15:52:47.047Z,96370.75
2018-02-15T15:55:15.001Z,96366.58
2018-02-15T15:57:44.893Z,96372.36
2018-02-15T16:00:12.548Z,96372.28
2018-02-15T16:02:40.142Z,96372.78
2018-02-15T16:05:08.142Z,96374.95
2018-02-15T16:07:35.758Z,96381.29
2018-02-15T16:10:03.314Z,96381.25
2018-02-15T16:12:31.635Z,96389.97
2018-02-15T16:14:59.210Z,96397.95
2018-02-15T16:17:27.503Z,96403.03
2018-02-15T16:19:55.216Z,96398.03
2018-02-15T16:22:22.958Z,96403.50
2018-02-15T16:24:50.537Z,96410.02
2018-02-15T16:27:18.750Z,96401.70
2018-02-15T16:29:46.437Z,96407.02
2018-02-15T16:32:14.029Z,96415.45
2018-02-15T16:34:41.616Z,96412.03
2018-02-15T16:37:09.781Z,96411.32
2018-02-15T16:39:37.362Z,96411.61
2018-02-15T16:42:04.990Z,96414.92
2018-02-15T16:44:32.536Z,96412.88
2018-02-15T16:47:00.104Z,96410.70
2018-02-15T16:49:28.062Z,96414.75
2018-02-15T16:51:55.768Z,96412.70
2018-02-15T16:54:23.313Z,96414.55
2018-02-15T16:56:50.997Z,96418.91
2018-02-15T16:59:18.574Z,96419.23
2018-02-15T17:01:46.153Z,96417.18
2018-02-15T17:04:13.749Z,96419.30
2018-02-15T17:06:41.315Z,96429.05
2018-02-15T17:09:08.992Z,96433.29
2018-02-15T17:11:36.595Z,96427.97
2018-02-15T17:14:04.178Z,96428.09
2018-02-15T17:16:31.775Z,96432.02
2018-02-15T17:18:59.337Z,96432.51
2018-02-15T17:21:26.902Z,96443.36
2018-02-15T17:23:54.531Z,96445.06
2018-02-15T17:26:22.202Z,96441.38
2018-02-15T17:28:49.810Z,96441.92
2018-02-15T17:31:17.529Z,96444.46
2018-02-15T17:33:45.098Z,96439.46
2018-02-15T17:36:12.701Z,96446.55
2018-02-15T17:38:40.307Z,96451.36
2018-02-15T17:41:08.147Z,96447.47
2018-02-15T17:43:35.717Z,96446.50
2018-02-15T17:46:03.321Z,96450.16
2018-02-15T17:48:30.924Z,96450.11
2018-02-15T17:50:58.525Z,96445.55
2018-02-15T17:53:26.377Z,96447.99
2018-02-15T17:55:53.935Z,96444.03
2018-02-15T17:58:22.565Z,96436.15
2018-02-15T18:00:50.207Z,96441.91
2018-02-15T18:03:18.318Z,96441.73
2018-02-15T18:05:46.021Z,96447.67
2018-02-15T18:08:13.610Z,96456.34
2018-02-15T18:10:41.212Z,96455.31
2018-02-15T18:13:09.200Z,96447.88
2018-02-15T18:15:37.093Z,96448.42
2018-02-15T18:18:05.964Z,96453.23
2018-02-15T18:20:33.541Z,96448.71
2018-02-15T18:23:01.170Z,96449.98
2018-02-15T18:25:28.753Z,96447.05
2018-02-15T18:27:56.630Z,96453.39
2018-02-15T18:30:24.210Z,96448.42
2018-02-15T18:32:51.813Z,96446.12
2018-02-15T18:35:19.575Z,96446.81
2018-02-15T18:37:47.189Z,96449.92
2018-02-15T18:40:15.182Z,96452.09
2018-02-15T18:42:42.756Z,96450.05
2018-02-15T18:45:10.993Z,96454.80
2018-02-15T18:47:38.689Z,96447.16
2018-02-15T18:50:06.290Z,96453.88
2018-02-15T18:52:34.110Z,96446.73
2018-02-15T18:55:01.991Z,96453.89
2018-02-15T18:57:30.055Z,96444.39
2018-02-15T18:59:57.736Z,96448.91
2018-02-15T19:02:29.586Z,96450.17
2018-02-15T19:05:07.213Z,96452.98
2018-02-15T19:07:34.984Z,96453.47
2018-02-15T19:10:02.606Z,96450.41
2018-02-15T19:12:30.354Z,96448.66
2018-02-15T19:15:00.020Z,96444.53
2018-02-15T19:17:27.790Z,96441.94
2018-02-15T19:19:55.402Z,96448.25
2018-02-15T19:22:24.212Z,96451.42
2018-02-15T19:24:52.024Z,96442.30
2018-02-15T19:27:20.328Z,96437.88
2018-02-15T19:29:48.407Z,96437.09
2018-02-15T19:32:15.987Z,96432.20
2018-02-15T19:34:44.942Z,96431.88
2018-02-15T19:37:13.026Z,96436.08
2018-02-15T19:39:42.492Z,96426.87
2018-02-15T19:42:12.687Z,96427.25
2018-02-15T19:44:40.249Z,96432.06
2018-02-15T19:47:09.125Z,96434.72
2018-02-15T19:49:36.882Z,96429.55
2018-02-15T19:52:05.994Z,96433.90
2018-02-15T19:54:35.799Z,96438.34
2018-02-15T19:57:10.842Z,96439.73
2018-02-15T19:59:38.753Z,96441.34
2018-02-15T20:02:06.356Z,96434.31
2018-02-15T20:04:33.941Z,96439.58
2018-02-15T20:07:01.561Z,96435.74
2018-02-15T20:09:30.600Z,96440.41
2018-02-15T20:11:58.221Z,96437.74
2018-02-15T20:14:26.031Z,96437.28
2018-02-15T20:16:53.664Z,96437.63
2018-02-15T20:19:21.814Z,96442.58
2018-02-15T20:21:49.619Z,96440.31
2018-02-15T20:24:17.215Z,96440.32
2018-02-15T20:26:50.388Z,96434.24
2018-02-15T20:29:17.981Z,96434.13
2018-02-15T20:31:45.547Z,96433.94
2018-02-15T20:34:13.137Z,96436.27
2018-02-15T20:36:40.755Z,96437.54
2018-02-15T20:39:13.840Z,96438.56
2018-02-15T20:41:41.422Z,96436.34
2018-02-15T20:44:09.058Z,96431.97
2018-02-15T20:46:36.709Z,96427.69
2018-02-15T20:49:04.390Z,96434.19
2018-02-15T20:51:37.737Z,96432.91
2018-02-15T20:54:10.949Z,96405.49
2018-02-15T20:56:38.526Z,96434.06
2018-02-15T20:59:06.105Z,96433.27
2018-02-15T21:01:33.798Z,96431.80
2018-02-15T21:04:01.400Z,96430.06
2018-02-15T21:06:29.325Z,96428.23
2018-02-15T21:08:56.897Z,96421.23
2018-02-15T21:11:24.501Z,96421.02
2018-02-15T21:13:52.083Z,96420.83
2018-02-15T21:16:19.662Z,96425.76
2018-02-15T21:18:47.245Z,96426.88
2018-02-15T21:21:14.861Z,96423.30
2018-02-15T21:23:42.458Z,96426.38
2018-02-15T21:26:10.088Z,96426.28
2018-02-15T21:28:37.714Z,96423.20
2018-02-15T21:31:05.457Z,96424.45
2018-02-15T21:33:33.119Z,96419.47
2018-02-15T21:36:00.725Z,96437.84
2018-02-15T21:38:28.348Z,96433.41
2018-02-15T21:40:56.012Z,96423.63
2018-02-15T21:43:23.784Z,96422.00
2018-02-15T21:45:51.418Z,96409.20
2018-02-15T21:48:18.997Z,96413.59
2018-02-15T21:50:46.914Z,96420.14
2018-02-15T21:53:14.555Z,96417.73
2018-02-15T21:55:42.225Z,96425.23
2018-02-15T21:58:09.804Z,96419.89
2018-02-15T22:00:37.372Z,96423.20
2018-02-15T22:03:05.255Z,96422.60
2018-02-15T22:05:32.840Z,96420.38
2018-02-15T22:08:00.744Z,96426.97
2018-02-15T22:10:28.401Z,96436.10
2018-02-15T22:12:56.044Z,96423.02
2018-02-15T22:15:25.120Z,96419.30
2018-02-15T22:17:52.733Z,96428.84
2018-02-15T22:20:20.325Z,96421.45
2018-02-15T22:22:47.940Z,96427.65
2018-02-15T22:25:15.571Z,96428.64
2018-02-15T22:27:43.148Z,96424.80
2018-02-15T22:30:10.797Z,96429.06
2018-02-15T22:32:38.398Z,96433.09
2018-02-15T22:35:06.345Z,96428.66
2018-02-15T22:37:33.949Z,96432.81
2018-02-15T22:40:01.575Z,96429.91
2018-02-15T22:42:29.153Z,96424.83
2018-02-15T22:44:56.748Z,96423.09
2018-02-15T22:47:24.351Z,96417.12
2018-02-15T22:49:51.949Z,96428.73
2018-02-15T22:52:19.519Z,96427.36
2018-02-15T22:54:47.273Z,96422.55
2018-02-15T22:57:14.889Z,96421.16
2018-02-15T22:59:42.785Z,96422.59
2018-02-15T23:02:10.368Z,96423.56
2018-02-15T23:04:40.631Z,96421.76
2018-02-15T23:07:09.175Z,96421.40
2018-02-15T23:09:36.832Z,96415.47
2018-02-15T23:12:04.461Z,96406.19
2018-02-15T23:14:33.128Z,96403.19
2018-02-15T23:17:00.763Z,96403.43
2018-02-15T23:19:28.389Z,96395.44
2018-02-15T23:21:56.230Z,96389.23
2018-02-15T23:24:26.896Z,96382.14
2018-02-15T23:26:54.457Z,96386.42
2018-02-15T23:29:22.317Z,96387.27
2018-02-15T23:31:49.968Z,96386.42
2018-02-15T23:34:17.584Z,96376.42
2018-02-15T23:36:45.172Z,96376.74
2018-02-15T23:39:14.679Z,96368.58
2018-02-15T23:41:42.285Z,96375.97
2018-02-15T23:44:10.325Z,96372.70
2018-02-15T23:46:38.003Z,96363.56
2018-02-15T23:49:06.988Z,96374.67
2018-02-15T23:51:36.604Z,96372.17
2018-02-15T23:54:04.652Z,96369.17
2018-02-15T23:56:32.250Z,96365.70
2018-02-15T23:58:59.864Z,96367.44
